sensor_id;sensor_type;location;lat;lon;timestamp;temperature;humidity
23783;DHT22;12071;50.850;4.446;2022-08-19T00:01:37;20.70;1.00
23783;DHT22;12071;50.850;4.446;2022-08-19T00:04:06;20.60;1.00
23783;DHT22;12071;50.850;4.446;2022-08-19T00:06:34;20.50;1.00
23783;DHT22;12071;50.850;4.446;2022-08-19T00:09:00;20.50;1.00
23783;DHT22;12071;50.850;4.446;2022-08-19T00:11:26;20.40;1.00
23783;DHT22;12071;50.850;4.446;2022-08-19T00:13:53;20.50;1.00
23783;DHT22;12071;50.850;4.446;2022-08-19T00:16:19;20.40;1.00
23783;DHT22;12071;50.850;4.446;2022-08-19T00:18:46;20.40;1.00
23783;DHT22;12071;50.850;4.446;2022-08-19T00:21:12;20.40;1.00
23783;DHT22;12071;50.850;4.446;2022-08-19T00:23:39;20.30;1.00
23783;DHT22;12071;50.850;4.446;2022-08-19T00:26:06;20.50;1.00
23783;DHT22;12071;50.850;4.446;2022-08-19T00:28:32;20.50;1.00
23783;DHT22;12071;50.850;4.446;2022-08-19T00:30:59;20.50;1.00
23783;DHT22;12071;50.850;4.446;2022-08-19T00:33:24;20.50;1.00
23783;DHT22;12071;50.850;4.446;2022-08-19T00:35:50;20.60;1.00
23783;DHT22;12071;50.850;4.446;2022-08-19T00:38:16;20.50;1.00
23783;DHT22;12071;50.850;4.446;2022-08-19T00:40:44;20.30;1.00
23783;DHT22;12071;50.850;4.446;2022-08-19T00:43:14;20.20;1.00
23783;DHT22;12071;50.850;4.446;2022-08-19T00:45:43;20.50;1.00
23783;DHT22;12071;50.850;4.446;2022-08-19T00:48:10;20.70;1.00
23783;DHT22;12071;50.850;4.446;2022-08-19T00:50:36;20.80;1.00
23783;DHT22;12071;50.850;4.446;2022-08-19T00:53:05;20.70;1.00
23783;DHT22;12071;50.850;4.446;2022-08-19T00:55:32;20.40;1.00
23783;DHT22;12071;50.850;4.446;2022-08-19T00:58:02;20.40;1.00
23783;DHT22;12071;50.850;4.446;2022-08-19T01:00:29;20.40;1.00
23783;DHT22;12071;50.850;4.446;2022-08-19T01:02:55;20.40;1.00
23783;DHT22;12071;50.850;4.446;2022-08-19T01:05:26;20.40;1.00
23783;DHT22;12071;50.850;4.446;2022-08-19T01:07:53;20.40;1.00
23783;DHT22;12071;50.850;4.446;2022-08-19T01:10:23;20.30;1.00
23783;DHT22;12071;50.850;4.446;2022-08-19T01:12:49;20.30;1.00
23783;DHT22;12071;50.850;4.446;2022-08-19T01:15:18;20.30;1.20
23783;DHT22;12071;50.850;4.446;2022-08-19T01:17:45;20.50;1.00
23783;DHT22;12071;50.850;4.446;2022-08-19T01:20:17;20.50;1.00
23783;DHT22;12071;50.850;4.446;2022-08-19T01:22:47;20.30;1.00
23783;DHT22;12071;50.850;4.446;2022-08-19T01:25:15;20.50;1.00
23783;DHT22;12071;50.850;4.446;2022-08-19T01:27:45;20.30;1.00
23783;DHT22;12071;50.850;4.446;2022-08-19T01:30:16;20.20;1.00
23783;DHT22;12071;50.850;4.446;2022-08-19T01:32:41;20.30;1.00
23783;DHT22;12071;50.850;4.446;2022-08-19T01:35:09;20.20;1.00
23783;DHT22;12071;50.850;4.446;2022-08-19T01:37:49;20.20;1.00
23783;DHT22;12071;50.850;4.446;2022-08-19T01:40:18;20.10;1.00
23783;DHT22;12071;50.850;4.446;2022-08-19T01:42:49;20.30;1.00
23783;DHT22;12071;50.850;4.446;2022-08-19T01:45:16;20.30;1.00
23783;DHT22;12071;50.850;4.446;2022-08-19T01:47:42;20.30;1.00
23783;DHT22;12071;50.850;4.446;2022-08-19T01:50:10;20.30;1.00
23783;DHT22;12071;50.850;4.446;2022-08-19T01:52:37;20.50;1.00
23783;DHT22;12071;50.850;4.446;2022-08-19T01:55:04;20.10;1.00
23783;DHT22;12071;50.850;4.446;2022-08-19T01:57:30;19.80;1.00
23783;DHT22;12071;50.850;4.446;2022-08-19T01:59:56;19.80;1.00
23783;DHT22;12071;50.850;4.446;2022-08-19T02:02:22;19.70;1.00
23783;DHT22;12071;50.850;4.446;2022-08-19T02:04:47;19.50;1.00
23783;DHT22;12071;50.850;4.446;2022-08-19T02:07:13;19.50;1.00
23783;DHT22;12071;50.850;4.446;2022-08-19T02:09:39;19.60;1.00
23783;DHT22;12071;50.850;4.446;2022-08-19T02:12:06;19.70;1.00
23783;DHT22;12071;50.850;4.446;2022-08-19T02:14:34;19.70;1.00
23783;DHT22;12071;50.850;4.446;2022-08-19T02:17:00;19.60;1.00
23783;DHT22;12071;50.850;4.446;2022-08-19T02:19:26;19.90;1.00
23783;DHT22;12071;50.850;4.446;2022-08-19T02:21:52;20.00;1.00
23783;DHT22;12071;50.850;4.446;2022-08-19T02:24:18;19.80;1.00
23783;DHT22;12071;50.850;4.446;2022-08-19T02:26:43;19.90;1.00
23783;DHT22;12071;50.850;4.446;2022-08-19T02:29:09;19.90;1.00
23783;DHT22;12071;50.850;4.446;2022-08-19T02:31:34;19.80;1.00
23783;DHT22;12071;50.850;4.446;2022-08-19T02:34:01;19.70;1.00
23783;DHT22;12071;50.850;4.446;2022-08-19T02:36:27;19.50;1.00
23783;DHT22;12071;50.850;4.446;2022-08-19T02:38:54;19.40;1.00
23783;DHT22;12071;50.850;4.446;2022-08-19T02:41:23;19.30;1.00
23783;DHT22;12071;50.850;4.446;2022-08-19T02:43:49;19.50;1.00
23783;DHT22;12071;50.850;4.446;2022-08-19T02:46:16;19.50;1.00
23783;DHT22;12071;50.850;4.446;2022-08-19T02:48:48;19.70;1.00
23783;DHT22;12071;50.850;4.446;2022-08-19T02:51:24;19.40;1.00
23783;DHT22;12071;50.850;4.446;2022-08-19T02:53:50;19.30;1.00
23783;DHT22;12071;50.850;4.446;2022-08-19T02:56:17;19.10;1.00
23783;DHT22;12071;50.850;4.446;2022-08-19T02:58:43;19.20;1.00
23783;DHT22;12071;50.850;4.446;2022-08-19T03:01:10;19.40;1.00
23783;DHT22;12071;50.850;4.446;2022-08-19T03:03:37;19.40;1.00
23783;DHT22;12071;50.850;4.446;2022-08-19T03:06:11;19.20;1.00
23783;DHT22;12071;50.850;4.446;2022-08-19T03:08:39;19.20;1.00
23783;DHT22;12071;50.850;4.446;2022-08-19T03:11:05;18.90;1.00
23783;DHT22;12071;50.850;4.446;2022-08-19T03:13:31;19.00;1.00
23783;DHT22;12071;50.850;4.446;2022-08-19T03:15:57;18.90;1.00
23783;DHT22;12071;50.850;4.446;2022-08-19T03:18:22;18.90;1.00
23783;DHT22;12071;50.850;4.446;2022-08-19T03:20:52;18.90;1.00
23783;DHT22;12071;50.850;4.446;2022-08-19T03:23:22;18.70;1.00
23783;DHT22;12071;50.850;4.446;2022-08-19T03:25:50;18.70;1.00
23783;DHT22;12071;50.850;4.446;2022-08-19T03:28:16;18.60;1.00
23783;DHT22;12071;50.850;4.446;2022-08-19T03:30:42;18.70;1.00
23783;DHT22;12071;50.850;4.446;2022-08-19T03:33:10;18.60;1.00
23783;DHT22;12071;50.850;4.446;2022-08-19T03:35:37;18.50;1.00
23783;DHT22;12071;50.850;4.446;2022-08-19T03:38:04;18.50;2.70
23783;DHT22;12071;50.850;4.446;2022-08-19T03:40:29;18.60;1.50
23783;DHT22;12071;50.850;4.446;2022-08-19T03:42:56;18.80;1.00
23783;DHT22;12071;50.850;4.446;2022-08-19T03:45:22;18.80;1.00
23783;DHT22;12071;50.850;4.446;2022-08-19T03:47:48;18.60;1.00
23783;DHT22;12071;50.850;4.446;2022-08-19T03:50:14;18.50;1.40
23783;DHT22;12071;50.850;4.446;2022-08-19T03:52:40;18.40;7.10
23783;DHT22;12071;50.850;4.446;2022-08-19T03:55:06;18.40;11.00
23783;DHT22;12071;50.850;4.446;2022-08-19T03:57:33;18.40;9.60
23783;DHT22;12071;50.850;4.446;2022-08-19T03:59:59;18.50;7.00
23783;DHT22;12071;50.850;4.446;2022-08-19T04:02:25;18.30;8.80
23783;DHT22;12071;50.850;4.446;2022-08-19T04:04:53;18.40;6.10
23783;DHT22;12071;50.850;4.446;2022-08-19T04:07:19;18.30;9.80
23783;DHT22;12071;50.850;4.446;2022-08-19T04:09:47;18.40;11.10
23783;DHT22;12071;50.850;4.446;2022-08-19T04:12:12;18.40;8.90
23783;DHT22;12071;50.850;4.446;2022-08-19T04:14:39;18.30;12.20
23783;DHT22;12071;50.850;4.446;2022-08-19T04:17:05;18.10;14.70
23783;DHT22;12071;50.850;4.446;2022-08-19T04:19:31;18.10;18.00
23783;DHT22;12071;50.850;4.446;2022-08-19T04:21:58;18.10;20.40
23783;DHT22;12071;50.850;4.446;2022-08-19T04:24:24;17.90;24.90
23783;DHT22;12071;50.850;4.446;2022-08-19T04:26:50;17.80;29.00
23783;DHT22;12071;50.850;4.446;2022-08-19T04:29:19;17.80;32.60
23783;DHT22;12071;50.850;4.446;2022-08-19T04:31:47;17.80;30.70
23783;DHT22;12071;50.850;4.446;2022-08-19T04:34:15;17.80;29.50
23783;DHT22;12071;50.850;4.446;2022-08-19T04:36:42;17.70;33.80
23783;DHT22;12071;50.850;4.446;2022-08-19T04:39:18;17.70;34.40
23783;DHT22;12071;50.850;4.446;2022-08-19T04:41:44;17.60;35.70
23783;DHT22;12071;50.850;4.446;2022-08-19T04:44:34;17.60;38.40
23783;DHT22;12071;50.850;4.446;2022-08-19T04:47:00;17.70;41.10
23783;DHT22;12071;50.850;4.446;2022-08-19T04:49:25;17.80;32.70
23783;DHT22;12071;50.850;4.446;2022-08-19T04:51:53;17.70;36.70
23783;DHT22;12071;50.850;4.446;2022-08-19T04:54:21;17.80;37.00
23783;DHT22;12071;50.850;4.446;2022-08-19T04:56:48;17.60;40.60
23783;DHT22;12071;50.850;4.446;2022-08-19T04:59:15;17.70;40.80
23783;DHT22;12071;50.850;4.446;2022-08-19T05:01:42;17.70;36.90
23783;DHT22;12071;50.850;4.446;2022-08-19T05:04:09;17.70;38.90
23783;DHT22;12071;50.850;4.446;2022-08-19T05:06:36;17.80;33.40
23783;DHT22;12071;50.850;4.446;2022-08-19T05:09:05;18.00;32.00
23783;DHT22;12071;50.850;4.446;2022-08-19T05:11:34;17.90;29.80
23783;DHT22;12071;50.850;4.446;2022-08-19T05:14:01;18.10;26.70
23783;DHT22;12071;50.850;4.446;2022-08-19T05:16:27;18.40;21.20
23783;DHT22;12071;50.850;4.446;2022-08-19T05:18:53;18.30;18.60
23783;DHT22;12071;50.850;4.446;2022-08-19T05:21:39;18.40;18.50
23783;DHT22;12071;50.850;4.446;2022-08-19T05:24:24;18.50;16.80
23783;DHT22;12071;50.850;4.446;2022-08-19T05:26:52;18.60;11.70
23783;DHT22;12071;50.850;4.446;2022-08-19T05:29:20;18.70;10.40
23783;DHT22;12071;50.850;4.446;2022-08-19T05:31:47;18.80;4.80
23783;DHT22;12071;50.850;4.446;2022-08-19T05:34:19;18.60;7.00
23783;DHT22;12071;50.850;4.446;2022-08-19T05:36:48;18.70;7.50
23783;DHT22;12071;50.850;4.446;2022-08-19T05:39:18;18.70;7.20
23783;DHT22;12071;50.850;4.446;2022-08-19T05:41:54;18.70;5.40
23783;DHT22;12071;50.850;4.446;2022-08-19T05:44:26;18.40;13.70
23783;DHT22;12071;50.850;4.446;2022-08-19T05:46:52;18.60;9.00
23783;DHT22;12071;50.850;4.446;2022-08-19T05:49:21;18.60;7.50
23783;DHT22;12071;50.850;4.446;2022-08-19T05:51:47;18.70;5.90
23783;DHT22;12071;50.850;4.446;2022-08-19T05:54:14;18.60;7.00
23783;DHT22;12071;50.850;4.446;2022-08-19T05:56:40;18.60;12.60
23783;DHT22;12071;50.850;4.446;2022-08-19T05:59:07;18.80;9.20
23783;DHT22;12071;50.850;4.446;2022-08-19T06:01:36;19.10;1.30
23783;DHT22;12071;50.850;4.446;2022-08-19T06:04:03;19.20;1.00
23783;DHT22;12071;50.850;4.446;2022-08-19T06:06:28;19.10;1.00
23783;DHT22;12071;50.850;4.446;2022-08-19T06:08:54;19.10;1.00
23783;DHT22;12071;50.850;4.446;2022-08-19T06:11:42;19.40;1.00
23783;DHT22;12071;50.850;4.446;2022-08-19T06:14:16;19.50;1.00
23783;DHT22;12071;50.850;4.446;2022-08-19T06:16:43;19.50;1.00
23783;DHT22;12071;50.850;4.446;2022-08-19T06:19:14;19.60;1.00
23783;DHT22;12071;50.850;4.446;2022-08-19T06:21:42;19.50;1.00
23783;DHT22;12071;50.850;4.446;2022-08-19T06:24:11;19.60;1.00
23783;DHT22;12071;50.850;4.446;2022-08-19T06:26:39;19.80;1.00
23783;DHT22;12071;50.850;4.446;2022-08-19T06:29:06;19.80;1.00
23783;DHT22;12071;50.850;4.446;2022-08-19T06:31:33;19.90;1.00
23783;DHT22;12071;50.850;4.446;2022-08-19T06:34:04;19.90;1.00
23783;DHT22;12071;50.850;4.446;2022-08-19T06:36:37;19.60;1.00
23783;DHT22;12071;50.850;4.446;2022-08-19T06:39:08;19.60;1.00
23783;DHT22;12071;50.850;4.446;2022-08-19T06:41:37;19.60;1.00
23783;DHT22;12071;50.850;4.446;2022-08-19T06:44:03;19.60;1.00
23783;DHT22;12071;50.850;4.446;2022-08-19T06:46:28;19.60;1.00
23783;DHT22;12071;50.850;4.446;2022-08-19T06:48:54;19.90;1.00
23783;DHT22;12071;50.850;4.446;2022-08-19T06:51:21;20.00;1.00
23783;DHT22;12071;50.850;4.446;2022-08-19T06:53:52;19.90;1.00
23783;DHT22;12071;50.850;4.446;2022-08-19T06:56:21;19.70;1.00
23783;DHT22;12071;50.850;4.446;2022-08-19T06:58:48;19.60;1.00
23783;DHT22;12071;50.850;4.446;2022-08-19T07:01:17;19.60;1.00
23783;DHT22;12071;50.850;4.446;2022-08-19T07:03:42;19.90;1.00
23783;DHT22;12071;50.850;4.446;2022-08-19T07:06:11;19.90;1.00
23783;DHT22;12071;50.850;4.446;2022-08-19T07:08:37;20.10;1.00
23783;DHT22;12071;50.850;4.446;2022-08-19T07:11:09;20.20;1.00
23783;DHT22;12071;50.850;4.446;2022-08-19T07:13:36;20.20;1.00
23783;DHT22;12071;50.850;4.446;2022-08-19T07:16:13;20.10;1.00
23783;DHT22;12071;50.850;4.446;2022-08-19T07:18:40;19.90;1.00
23783;DHT22;12071;50.850;4.446;2022-08-19T07:21:12;20.00;1.00
23783;DHT22;12071;50.850;4.446;2022-08-19T07:23:41;20.00;1.00
23783;DHT22;12071;50.850;4.446;2022-08-19T07:26:07;20.00;1.00
23783;DHT22;12071;50.850;4.446;2022-08-19T07:28:33;20.00;1.00
23783;DHT22;12071;50.850;4.446;2022-08-19T07:30:59;20.20;1.00
23783;DHT22;12071;50.850;4.446;2022-08-19T07:33:27;20.30;1.00
23783;DHT22;12071;50.850;4.446;2022-08-19T07:35:53;20.60;1.00
23783;DHT22;12071;50.850;4.446;2022-08-19T07:38:19;20.70;1.00
23783;DHT22;12071;50.850;4.446;2022-08-19T07:40:45;20.50;1.00
23783;DHT22;12071;50.850;4.446;2022-08-19T07:43:11;20.20;1.00
23783;DHT22;12071;50.850;4.446;2022-08-19T07:45:37;20.30;1.00
23783;DHT22;12071;50.850;4.446;2022-08-19T07:48:03;20.60;1.00
23783;DHT22;12071;50.850;4.446;2022-08-19T07:50:29;20.50;1.00
23783;DHT22;12071;50.850;4.446;2022-08-19T07:52:55;20.50;1.00
23783;DHT22;12071;50.850;4.446;2022-08-19T07:55:26;20.40;1.00
23783;DHT22;12071;50.850;4.446;2022-08-19T07:57:51;20.40;1.00
23783;DHT22;12071;50.850;4.446;2022-08-19T08:00:19;20.70;1.00
23783;DHT22;12071;50.850;4.446;2022-08-19T08:02:44;20.80;1.00
23783;DHT22;12071;50.850;4.446;2022-08-19T08:05:10;20.90;1.00
23783;DHT22;12071;50.850;4.446;2022-08-19T08:07:54;20.90;1.00
23783;DHT22;12071;50.850;4.446;2022-08-19T08:10:39;21.10;1.00
23783;DHT22;12071;50.850;4.446;2022-08-19T08:13:05;21.30;1.00
23783;DHT22;12071;50.850;4.446;2022-08-19T08:15:31;21.20;1.00
23783;DHT22;12071;50.850;4.446;2022-08-19T08:17:57;21.40;1.00
23783;DHT22;12071;50.850;4.446;2022-08-19T08:20:24;21.30;1.00
23783;DHT22;12071;50.850;4.446;2022-08-19T08:22:49;21.20;1.00
23783;DHT22;12071;50.850;4.446;2022-08-19T08:25:34;21.00;1.00
23783;DHT22;12071;50.850;4.446;2022-08-19T08:28:01;21.20;1.00
23783;DHT22;12071;50.850;4.446;2022-08-19T08:30:29;21.20;1.00
23783;DHT22;12071;50.850;4.446;2022-08-19T08:32:55;21.40;1.00
23783;DHT22;12071;50.850;4.446;2022-08-19T08:35:23;21.70;1.00
23783;DHT22;12071;50.850;4.446;2022-08-19T08:37:50;21.90;1.00
23783;DHT22;12071;50.850;4.446;2022-08-19T08:45:38;21.60;1.00
23783;DHT22;12071;50.850;4.446;2022-08-19T08:48:22;21.40;1.00
23783;DHT22;12071;50.850;4.446;2022-08-19T08:50:49;21.70;1.00
23783;DHT22;12071;50.850;4.446;2022-08-19T08:53:19;21.90;1.00
23783;DHT22;12071;50.850;4.446;2022-08-19T08:55:46;22.00;1.00
23783;DHT22;12071;50.850;4.446;2022-08-19T08:58:17;22.20;1.00
23783;DHT22;12071;50.850;4.446;2022-08-19T09:00:48;21.90;1.00
23783;DHT22;12071;50.850;4.446;2022-08-19T09:03:21;21.70;1.00
23783;DHT22;12071;50.850;4.446;2022-08-19T09:09:16;21.50;1.00
23783;DHT22;12071;50.850;4.446;2022-08-19T09:14:51;21.90;1.00
23783;DHT22;12071;50.850;4.446;2022-08-19T09:17:21;22.10;1.00
23783;DHT22;12071;50.850;4.446;2022-08-19T09:22:19;21.80;1.00
23783;DHT22;12071;50.850;4.446;2022-08-19T09:24:50;22.00;1.00
23783;DHT22;12071;50.850;4.446;2022-08-19T09:27:18;21.90;1.00
23783;DHT22;12071;50.850;4.446;2022-08-19T09:29:45;21.70;1.00
23783;DHT22;12071;50.850;4.446;2022-08-19T09:32:14;21.80;1.00
23783;DHT22;12071;50.850;4.446;2022-08-19T09:34:40;22.00;1.00
23783;DHT22;12071;50.850;4.446;2022-08-19T09:37:07;22.30;1.00
23783;DHT22;12071;50.850;4.446;2022-08-19T09:39:32;22.60;1.00
23783;DHT22;12071;50.850;4.446;2022-08-19T09:41:58;22.50;1.00
23783;DHT22;12071;50.850;4.446;2022-08-19T09:44:24;22.60;1.00
23783;DHT22;12071;50.850;4.446;2022-08-19T09:46:49;22.70;1.00
23783;DHT22;12071;50.850;4.446;2022-08-19T09:49:17;22.60;1.00
23783;DHT22;12071;50.850;4.446;2022-08-19T09:51:43;22.60;1.00
23783;DHT22;12071;50.850;4.446;2022-08-19T09:54:09;22.60;1.00
23783;DHT22;12071;50.850;4.446;2022-08-19T09:56:35;22.60;1.00
23783;DHT22;12071;50.850;4.446;2022-08-19T09:59:01;22.30;1.00
23783;DHT22;12071;50.850;4.446;2022-08-19T10:01:31;22.20;1.00
23783;DHT22;12071;50.850;4.446;2022-08-19T10:03:58;22.10;1.00
23783;DHT22;12071;50.850;4.446;2022-08-19T10:06:27;22.10;1.00
23783;DHT22;12071;50.850;4.446;2022-08-19T10:08:56;22.10;1.00
23783;DHT22;12071;50.850;4.446;2022-08-19T10:11:22;22.30;1.00
23783;DHT22;12071;50.850;4.446;2022-08-19T10:13:48;22.60;1.00
23783;DHT22;12071;50.850;4.446;2022-08-19T10:16:16;22.60;1.00
23783;DHT22;12071;50.850;4.446;2022-08-19T10:18:44;22.70;1.00
23783;DHT22;12071;50.850;4.446;2022-08-19T10:21:18;22.80;1.00
23783;DHT22;12071;50.850;4.446;2022-08-19T10:23:49;22.80;1.00
23783;DHT22;12071;50.850;4.446;2022-08-19T10:26:25;22.70;1.00
23783;DHT22;12071;50.850;4.446;2022-08-19T10:28:51;22.70;1.00
23783;DHT22;12071;50.850;4.446;2022-08-19T10:31:20;22.60;1.00
23783;DHT22;12071;50.850;4.446;2022-08-19T10:33:47;22.80;1.00
23783;DHT22;12071;50.850;4.446;2022-08-19T10:36:23;23.00;1.00
23783;DHT22;12071;50.850;4.446;2022-08-19T10:38:51;23.20;1.00
23783;DHT22;12071;50.850;4.446;2022-08-19T10:41:19;23.30;1.00
23783;DHT22;12071;50.850;4.446;2022-08-19T10:43:46;23.40;1.00
23783;DHT22;12071;50.850;4.446;2022-08-19T10:46:14;23.20;1.00
23783;DHT22;12071;50.850;4.446;2022-08-19T10:48:41;23.20;1.00
23783;DHT22;12071;50.850;4.446;2022-08-19T10:51:08;23.30;1.00
23783;DHT22;12071;50.850;4.446;2022-08-19T10:53:52;23.30;1.00
23783;DHT22;12071;50.850;4.446;2022-08-19T10:56:19;23.10;1.00
23783;DHT22;12071;50.850;4.446;2022-08-19T10:59:04;23.00;1.00
23783;DHT22;12071;50.850;4.446;2022-08-19T11:01:31;23.20;1.00
23783;DHT22;12071;50.850;4.446;2022-08-19T11:04:01;22.90;1.00
23783;DHT22;12071;50.850;4.446;2022-08-19T11:06:27;23.10;1.00
23783;DHT22;12071;50.850;4.446;2022-08-19T11:08:56;23.30;1.00
23783;DHT22;12071;50.850;4.446;2022-08-19T11:11:22;23.50;1.00
23783;DHT22;12071;50.850;4.446;2022-08-19T11:13:49;23.60;1.00
23783;DHT22;12071;50.850;4.446;2022-08-19T11:16:21;23.70;1.00
23783;DHT22;12071;50.850;4.446;2022-08-19T11:18:50;23.50;1.00
23783;DHT22;12071;50.850;4.446;2022-08-19T11:21:17;23.10;1.00
23783;DHT22;12071;50.850;4.446;2022-08-19T11:23:45;22.80;1.00
23783;DHT22;12071;50.850;4.446;2022-08-19T11:26:12;22.80;1.00
23783;DHT22;12071;50.850;4.446;2022-08-19T11:28:38;23.00;1.00
23783;DHT22;12071;50.850;4.446;2022-08-19T11:31:08;23.10;1.00
23783;DHT22;12071;50.850;4.446;2022-08-19T11:33:34;23.20;1.00
23783;DHT22;12071;50.850;4.446;2022-08-19T11:36:00;23.00;1.00
23783;DHT22;12071;50.850;4.446;2022-08-19T11:38:27;22.90;1.00
23783;DHT22;12071;50.850;4.446;2022-08-19T11:41:02;23.10;1.00
23783;DHT22;12071;50.850;4.446;2022-08-19T11:43:29;23.10;1.00
23783;DHT22;12071;50.850;4.446;2022-08-19T11:45:55;23.30;1.00
23783;DHT22;12071;50.850;4.446;2022-08-19T11:48:21;23.10;1.00
23783;DHT22;12071;50.850;4.446;2022-08-19T11:50:48;22.80;1.00
23783;DHT22;12071;50.850;4.446;2022-08-19T11:53:13;22.90;1.00
23783;DHT22;12071;50.850;4.446;2022-08-19T11:55:39;22.90;1.00
23783;DHT22;12071;50.850;4.446;2022-08-19T11:58:05;23.30;1.00
23783;DHT22;12071;50.850;4.446;2022-08-19T12:00:33;23.40;1.00
23783;DHT22;12071;50.850;4.446;2022-08-19T12:03:01;23.30;1.00
23783;DHT22;12071;50.850;4.446;2022-08-19T12:05:26;23.30;1.00
23783;DHT22;12071;50.850;4.446;2022-08-19T12:07:52;23.40;1.00
23783;DHT22;12071;50.850;4.446;2022-08-19T12:10:20;23.60;1.00
23783;DHT22;12071;50.850;4.446;2022-08-19T12:12:46;23.90;1.00
23783;DHT22;12071;50.850;4.446;2022-08-19T12:15:12;24.20;1.00
23783;DHT22;12071;50.850;4.446;2022-08-19T12:17:43;24.40;99.90
23783;DHT22;12071;50.850;4.446;2022-08-19T12:20:12;24.70;99.90
23783;DHT22;12071;50.850;4.446;2022-08-19T12:22:39;25.30;99.90
23783;DHT22;12071;50.850;4.446;2022-08-19T12:25:10;25.20;99.90
23783;DHT22;12071;50.850;4.446;2022-08-19T12:27:37;25.40;99.90
23783;DHT22;12071;50.850;4.446;2022-08-19T12:30:04;25.80;99.90
23783;DHT22;12071;50.850;4.446;2022-08-19T12:32:30;26.10;99.90
23783;DHT22;12071;50.850;4.446;2022-08-19T12:34:56;25.90;99.90
23783;DHT22;12071;50.850;4.446;2022-08-19T12:37:21;25.80;99.90
23783;DHT22;12071;50.850;4.446;2022-08-19T12:39:47;25.70;99.90
23783;DHT22;12071;50.850;4.446;2022-08-19T12:42:14;25.60;99.90
23783;DHT22;12071;50.850;4.446;2022-08-19T12:44:42;25.90;99.90
23783;DHT22;12071;50.850;4.446;2022-08-19T12:47:09;25.50;99.90
23783;DHT22;12071;50.850;4.446;2022-08-19T12:49:37;25.60;99.90
23783;DHT22;12071;50.850;4.446;2022-08-19T12:52:05;25.40;99.90
23783;DHT22;12071;50.850;4.446;2022-08-19T12:54:32;25.10;99.90
23783;DHT22;12071;50.850;4.446;2022-08-19T12:56:58;25.30;99.90
23783;DHT22;12071;50.850;4.446;2022-08-19T12:59:25;25.30;99.90
23783;DHT22;12071;50.850;4.446;2022-08-19T13:01:50;25.30;99.90
23783;DHT22;12071;50.850;4.446;2022-08-19T13:04:16;25.60;99.90
23783;DHT22;12071;50.850;4.446;2022-08-19T13:06:42;26.10;99.90
23783;DHT22;12071;50.850;4.446;2022-08-19T13:09:08;26.00;99.90
23783;DHT22;12071;50.850;4.446;2022-08-19T13:11:34;26.00;99.90
23783;DHT22;12071;50.850;4.446;2022-08-19T13:14:02;26.00;99.90
23783;DHT22;12071;50.850;4.446;2022-08-19T13:16:29;26.20;98.40
23783;DHT22;12071;50.850;4.446;2022-08-19T13:18:56;25.90;94.80
23783;DHT22;12071;50.850;4.446;2022-08-19T13:21:25;26.10;99.90
23783;DHT22;12071;50.850;4.446;2022-08-19T13:23:52;26.30;27.60
23783;DHT22;12071;50.850;4.446;2022-08-19T13:26:20;26.20;77.90
23783;DHT22;12071;50.850;4.446;2022-08-19T13:28:45;27.10;1.00
23783;DHT22;12071;50.850;4.446;2022-08-19T13:31:32;27.30;1.00
23783;DHT22;12071;50.850;4.446;2022-08-19T13:34:26;26.90;1.00
23783;DHT22;12071;50.850;4.446;2022-08-19T13:36:53;26.70;1.00
23783;DHT22;12071;50.850;4.446;2022-08-19T13:39:19;26.60;1.00
23783;DHT22;12071;50.850;4.446;2022-08-19T13:41:46;26.30;1.00
23783;DHT22;12071;50.850;4.446;2022-08-19T13:44:14;26.10;1.00
23783;DHT22;12071;50.850;4.446;2022-08-19T13:46:41;26.00;24.90
23783;DHT22;12071;50.850;4.446;2022-08-19T13:49:10;26.40;5.50
23783;DHT22;12071;50.850;4.446;2022-08-19T13:51:37;27.10;1.00
23783;DHT22;12071;50.850;4.446;2022-08-19T13:54:05;28.20;99.90
23783;DHT22;12071;50.850;4.446;2022-08-19T13:56:30;28.00;99.90
23783;DHT22;12071;50.850;4.446;2022-08-19T13:58:56;27.50;99.90
23783;DHT22;12071;50.850;4.446;2022-08-19T14:01:24;27.80;99.90
23783;DHT22;12071;50.850;4.446;2022-08-19T14:03:50;29.00;1.00
23783;DHT22;12071;50.850;4.446;2022-08-19T14:06:16;28.70;1.00
23783;DHT22;12071;50.850;4.446;2022-08-19T14:08:42;28.00;10.90
23783;DHT22;12071;50.850;4.446;2022-08-19T14:11:09;26.50;1.00
23783;DHT22;12071;50.850;4.446;2022-08-19T14:13:34;26.10;1.00
23783;DHT22;12071;50.850;4.446;2022-08-19T14:16:00;25.90;1.00
23783;DHT22;12071;50.850;4.446;2022-08-19T14:18:26;25.90;1.00
23783;DHT22;12071;50.850;4.446;2022-08-19T14:20:52;25.50;48.60
23783;DHT22;12071;50.850;4.446;2022-08-19T14:23:18;25.30;99.90
23783;DHT22;12071;50.850;4.446;2022-08-19T14:25:44;24.60;99.90
23783;DHT22;12071;50.850;4.446;2022-08-19T14:28:09;24.30;99.90
23783;DHT22;12071;50.850;4.446;2022-08-19T14:30:36;24.20;99.90
23783;DHT22;12071;50.850;4.446;2022-08-19T14:33:03;24.30;1.00
23783;DHT22;12071;50.850;4.446;2022-08-19T14:35:31;24.10;1.00
23783;DHT22;12071;50.850;4.446;2022-08-19T14:38:05;24.50;1.00
23783;DHT22;12071;50.850;4.446;2022-08-19T14:40:31;24.60;99.90
23783;DHT22;12071;50.850;4.446;2022-08-19T14:43:00;24.50;1.00
23783;DHT22;12071;50.850;4.446;2022-08-19T14:45:35;24.30;1.00
23783;DHT22;12071;50.850;4.446;2022-08-19T14:48:01;24.10;1.00
23783;DHT22;12071;50.850;4.446;2022-08-19T14:50:27;23.80;1.00
23783;DHT22;12071;50.850;4.446;2022-08-19T14:53:01;23.70;1.00
23783;DHT22;12071;50.850;4.446;2022-08-19T14:55:29;23.30;1.00
23783;DHT22;12071;50.850;4.446;2022-08-19T14:57:55;23.10;1.00
23783;DHT22;12071;50.850;4.446;2022-08-19T15:00:21;23.20;1.00
23783;DHT22;12071;50.850;4.446;2022-08-19T15:02:49;23.10;1.00
23783;DHT22;12071;50.850;4.446;2022-08-19T15:05:15;23.30;1.00
23783;DHT22;12071;50.850;4.446;2022-08-19T15:07:41;23.90;1.00
23783;DHT22;12071;50.850;4.446;2022-08-19T15:10:09;24.40;1.00
23783;DHT22;12071;50.850;4.446;2022-08-19T15:12:35;25.00;1.00
23783;DHT22;12071;50.850;4.446;2022-08-19T15:15:01;25.70;1.00
23783;DHT22;12071;50.850;4.446;2022-08-19T15:17:28;26.50;99.90
23783;DHT22;12071;50.850;4.446;2022-08-19T15:19:55;26.70;99.90
23783;DHT22;12071;50.850;4.446;2022-08-19T15:22:21;26.20;99.90
23783;DHT22;12071;50.850;4.446;2022-08-19T15:24:47;25.50;99.90
23783;DHT22;12071;50.850;4.446;2022-08-19T15:27:13;26.00;99.90
23783;DHT22;12071;50.850;4.446;2022-08-19T15:29:39;27.00;99.90
23783;DHT22;12071;50.850;4.446;2022-08-19T15:32:07;26.70;99.90
23783;DHT22;12071;50.850;4.446;2022-08-19T15:34:33;26.80;99.90
23783;DHT22;12071;50.850;4.446;2022-08-19T15:37:00;27.30;99.90
23783;DHT22;12071;50.850;4.446;2022-08-19T15:39:26;27.30;99.90
23783;DHT22;12071;50.850;4.446;2022-08-19T15:41:52;27.20;99.90
23783;DHT22;12071;50.850;4.446;2022-08-19T15:44:18;27.80;99.90
23783;DHT22;12071;50.850;4.446;2022-08-19T15:46:47;27.40;74.00
23783;DHT22;12071;50.850;4.446;2022-08-19T15:49:15;27.00;99.90
23783;DHT22;12071;50.850;4.446;2022-08-19T15:51:43;26.70;99.90
23783;DHT22;12071;50.850;4.446;2022-08-19T15:54:12;26.50;99.90
23783;DHT22;12071;50.850;4.446;2022-08-19T15:56:37;26.10;99.90
23783;DHT22;12071;50.850;4.446;2022-08-19T15:59:22;25.90;99.90
23783;DHT22;12071;50.850;4.446;2022-08-19T16:02:07;25.60;99.90